createdAt,value
2019-05-22T00:02:25.437Z,83.08
2019-05-22T00:04:58.339Z,82.99
2019-05-22T00:07:32.083Z,83.39
2019-05-22T00:10:02.538Z,82.93
2019-05-22T00:12:46.030Z,82.49
2019-05-22T00:15:11.835Z,82.57
2019-05-22T00:17:45.846Z,82.79
2019-05-22T00:20:16.337Z,82.85
2019-05-22T00:22:51.178Z,82.48
2019-05-22T00:25:25.651Z,82.55
2019-05-22T00:27:56.731Z,82.60
2019-05-22T00:30:28.941Z,82.75
2019-05-22T00:33:00.551Z,82.31
2019-05-22T00:35:31.480Z,82.52
2019-05-22T00:38:03.520Z,82.63
2019-05-22T00:40:38.044Z,82.82
2019-05-22T00:43:13.770Z,82.95
2019-05-22T00:45:42.760Z,82.68
2019-05-22T00:48:16.341Z,82.58
2019-05-22T00:50:54.539Z,82.13
2019-05-22T00:53:29.237Z,82.47
2019-05-22T00:56:05.521Z,82.48
2019-05-22T00:58:41.128Z,82.44
2019-05-22T01:01:16.633Z,82.36
2019-05-22T01:03:48.576Z,82.28
2019-05-22T01:06:21.547Z,82.09
2019-05-22T01:08:52.804Z,82.16
2019-05-22T01:11:29.579Z,82.08
2019-05-22T01:14:02.195Z,82.28
2019-05-22T01:16:32.960Z,82.13
2019-05-22T01:19:05.846Z,82.37
2019-05-22T01:21:37.541Z,82.29
2019-05-22T01:24:07.833Z,82.71
2019-05-22T01:26:39.508Z,82.42
2019-05-22T01:29:11.562Z,82.41
2019-05-22T01:31:44.744Z,82.68
2019-05-22T01:34:16.425Z,82.70
2019-05-22T01:36:48.338Z,82.71
2019-05-22T01:39:27.279Z,82.56
2019-05-22T01:42:00.769Z,82.68
2019-05-22T01:44:36.014Z,82.11
2019-05-22T01:47:13.545Z,82.00
2019-05-22T01:49:51.104Z,81.93
2019-05-22T01:52:23.239Z,82.03
2019-05-22T01:54:55.332Z,82.36
2019-05-22T01:57:28.582Z,81.72
2019-05-22T01:59:59.165Z,82.37
2019-05-22T02:02:30.553Z,82.20
2019-05-22T02:05:01.921Z,82.07
2019-05-22T02:07:35.011Z,81.62
2019-05-22T02:10:10.818Z,81.51
2019-05-22T02:12:52.723Z,81.85
2019-05-22T02:15:24.952Z,81.77
2019-05-22T02:17:56.596Z,81.97
2019-05-22T02:20:29.014Z,81.69
2019-05-22T02:22:59.904Z,81.54
2019-05-22T02:25:32.655Z,81.64
2019-05-22T02:28:04.041Z,81.52
2019-05-22T02:30:38.647Z,81.99
2019-05-22T02:33:13.332Z,82.33
2019-05-22T02:35:43.407Z,82.56
2019-05-22T02:38:16.866Z,82.83
2019-05-22T02:40:51.804Z,83.05
2019-05-22T02:43:24.643Z,83.24
2019-05-22T02:45:54.811Z,83.20
2019-05-22T02:48:28.242Z,83.30
2019-05-22T02:51:02.835Z,83.51
2019-05-22T02:53:33.403Z,83.73
2019-05-22T02:56:04.012Z,83.54
2019-05-22T02:58:34.678Z,83.46
2019-05-22T03:01:06.550Z,83.77
2019-05-22T03:03:37.568Z,83.78
2019-05-22T03:06:14.159Z,83.31
2019-05-22T03:09:01.000Z,83.04
2019-05-22T03:11:43.847Z,83.14
2019-05-22T03:14:15.876Z,83.41
2019-05-22T03:16:52.044Z,83.24
2019-05-22T03:19:47.961Z,83.43
2019-05-22T03:22:21.462Z,83.86
2019-05-22T03:25:01.983Z,83.28
2019-05-22T03:27:40.411Z,83.42
2019-05-22T03:30:25.807Z,83.30
2019-05-22T03:33:01.199Z,83.48
2019-05-22T03:35:34.805Z,83.23
2019-05-22T03:38:08.535Z,83.51
2019-05-22T03:40:39.523Z,83.14
2019-05-22T03:43:18.528Z,83.44
2019-05-22T03:45:50.689Z,83.43
2019-05-22T03:48:22.672Z,83.73
2019-05-22T03:50:59.783Z,83.40
2019-05-22T03:53:31.777Z,83.45
2019-05-22T03:56:03.060Z,83.85
2019-05-22T03:58:34.668Z,83.87
2019-05-22T04:01:06.895Z,83.64
2019-05-22T04:03:37.040Z,83.88
2019-05-22T04:06:08.606Z,83.71
2019-05-22T04:08:42.527Z,84.11
2019-05-22T04:11:14.541Z,84.23
2019-05-22T04:13:47.765Z,84.26
2019-05-22T04:16:19.517Z,84.66
2019-05-22T04:18:51.258Z,84.36
2019-05-22T04:21:21.664Z,84.61
2019-05-22T04:23:52.051Z,84.23
2019-05-22T04:26:24.027Z,83.76
2019-05-22T04:28:55.865Z,83.35
2019-05-22T04:31:34.807Z,83.68
2019-05-22T04:34:05.612Z,82.88
2019-05-22T04:36:36.965Z,83.00
2019-05-22T04:39:12.241Z,82.68
2019-05-22T04:41:44.061Z,82.59
2019-05-22T04:44:16.283Z,82.19
2019-05-22T04:46:47.852Z,82.05
2019-05-22T04:49:18.563Z,81.94
2019-05-22T04:51:49.033Z,82.24
2019-05-22T04:54:19.609Z,81.90
2019-05-22T04:56:49.877Z,81.79
2019-05-22T04:59:20.480Z,81.93
2019-05-22T05:01:51.148Z,81.99
2019-05-22T05:04:22.875Z,81.79
2019-05-22T05:06:53.918Z,81.75
2019-05-22T05:09:24.645Z,81.67
2019-05-22T05:11:55.258Z,81.81
2019-05-22T05:14:25.389Z,81.93
2019-05-22T05:16:55.853Z,81.63
2019-05-22T05:19:26.401Z,81.32
2019-05-22T05:21:57.049Z,81.52
2019-05-22T05:24:27.656Z,81.45
2019-05-22T05:27:01.967Z,82.32
2019-05-22T05:29:35.057Z,83.05
2019-05-22T05:32:05.909Z,83.02
2019-05-22T05:34:48.014Z,83.19
2019-05-22T05:37:20.218Z,83.57
2019-05-22T05:40:12.425Z,83.78
2019-05-22T05:42:42.660Z,84.11
2019-05-22T05:45:15.289Z,84.04
2019-05-22T05:47:45.960Z,83.60
2019-05-22T05:50:16.630Z,84.07
2019-05-22T05:52:47.316Z,84.60
2019-05-22T05:55:17.707Z,84.59
2019-05-22T05:57:51.161Z,84.60
2019-05-22T06:00:28.242Z,84.51
2019-05-22T06:03:29.115Z,84.79
2019-05-22T06:06:04.702Z,84.93
2019-05-22T06:08:34.926Z,84.73
2019-05-22T06:11:34.497Z,84.48
2019-05-22T06:14:11.948Z,84.32
2019-05-22T06:16:51.119Z,85.08
2019-05-22T06:19:22.459Z,84.26
2019-05-22T06:21:53.485Z,83.27
2019-05-22T06:24:33.150Z,82.96
2019-05-22T06:27:10.911Z,83.13
2019-05-22T06:29:44.867Z,83.52
2019-05-22T06:32:34.618Z,82.79
2019-05-22T06:35:07.778Z,82.97
2019-05-22T06:37:53.046Z,83.36
2019-05-22T06:40:23.776Z,83.35
2019-05-22T06:43:24.690Z,83.21
2019-05-22T06:45:55.620Z,83.04
2019-05-22T06:48:25.755Z,83.64
2019-05-22T06:50:57.110Z,84.17
2019-05-22T06:53:27.296Z,84.32
2019-05-22T06:55:59.033Z,84.64
2019-05-22T06:58:29.335Z,84.57
2019-05-22T07:00:59.900Z,85.16
2019-05-22T07:03:30.905Z,85.58
2019-05-22T07:06:02.894Z,85.77
2019-05-22T07:08:33.257Z,86.18
2019-05-22T07:11:03.278Z,86.29
2019-05-22T07:13:34.222Z,85.61
2019-05-22T07:16:06.126Z,85.72
2019-05-22T07:18:36.369Z,85.83
2019-05-22T07:21:06.718Z,85.82
2019-05-22T07:23:39.609Z,85.06
2019-05-22T07:26:10.489Z,85.51
2019-05-22T07:28:41.280Z,84.82
2019-05-22T07:31:11.918Z,84.90
2019-05-22T07:33:42.257Z,84.00
2019-05-22T07:36:16.792Z,84.06
2019-05-22T07:38:45.426Z,83.50
2019-05-22T07:41:15.897Z,84.29
2019-05-22T07:43:47.569Z,83.39
2019-05-22T07:46:19.480Z,83.45
2019-05-22T07:48:49.739Z,84.01
2019-05-22T07:51:21.517Z,84.30
2019-05-22T07:53:51.756Z,84.32
2019-05-22T07:56:23.076Z,84.02
2019-05-22T07:58:54.454Z,83.69
2019-05-22T08:01:24.694Z,83.89
2019-05-22T08:03:57.443Z,84.09
2019-05-22T08:06:29.520Z,83.34
2019-05-22T08:09:00.380Z,83.73
2019-05-22T08:11:31.313Z,83.60
2019-05-22T08:14:02.095Z,84.39
2019-05-22T08:16:32.521Z,84.99
2019-05-22T08:19:03.069Z,84.14
2019-05-22T08:21:33.412Z,84.48
2019-05-22T08:24:04.203Z,85.22
2019-05-22T08:26:53.220Z,85.51
2019-05-22T08:29:09.864Z,85.31
2019-05-22T08:31:41.536Z,85.38
2019-05-22T08:34:11.833Z,85.17
2019-05-22T08:36:42.086Z,85.33
2019-05-22T08:39:14.040Z,85.44
2019-05-22T08:41:44.918Z,85.65
2019-05-22T08:44:17.493Z,85.61
2019-05-22T08:46:47.747Z,85.48
2019-05-22T08:49:18.313Z,86.08
2019-05-22T08:51:49.661Z,85.94
2019-05-22T08:54:20.221Z,86.19
2019-05-22T08:56:51.543Z,85.80
2019-05-22T08:59:25.271Z,85.42
2019-05-22T09:01:57.218Z,85.00
2019-05-22T09:04:27.418Z,84.62
2019-05-22T09:06:58.946Z,85.12
2019-05-22T09:09:29.317Z,84.81
2019-05-22T09:12:02.297Z,84.38
2019-05-22T09:14:35.715Z,85.28
2019-05-22T09:17:07.569Z,84.77
2019-05-22T09:19:37.949Z,84.01
2019-05-22T09:22:09.011Z,83.98
2019-05-22T09:24:39.123Z,83.73
2019-05-22T09:27:11.533Z,83.66
2019-05-22T09:29:43.220Z,82.90
2019-05-22T09:32:13.341Z,83.21
2019-05-22T09:34:44.574Z,83.26
2019-05-22T09:37:21.839Z,82.73
2019-05-22T09:39:47.340Z,82.82
2019-05-22T09:42:18.449Z,83.03
2019-05-22T09:44:48.772Z,83.53
2019-05-22T09:47:23.710Z,83.09
2019-05-22T09:49:53.853Z,82.99
2019-05-22T09:52:24.254Z,83.13
2019-05-22T09:54:54.679Z,83.05
2019-05-22T09:57:25.899Z,82.70
2019-05-22T09:59:57.670Z,83.08
2019-05-22T10:02:30.964Z,82.20
2019-05-22T10:05:01.272Z,82.01
2019-05-22T10:07:32.961Z,81.51
2019-05-22T10:10:04.001Z,80.96
2019-05-22T10:12:34.439Z,80.88
2019-05-22T10:15:08.256Z,80.70
2019-05-22T10:17:42.369Z,80.30
2019-05-22T10:20:13.651Z,79.73
2019-05-22T10:22:43.855Z,79.49
2019-05-22T10:25:17.173Z,79.59
2019-05-22T10:27:49.978Z,79.80
2019-05-22T10:30:23.418Z,79.11
2019-05-22T10:32:53.519Z,78.24
2019-05-22T10:35:26.867Z,77.26
2019-05-22T10:37:57.732Z,76.56
2019-05-22T10:40:28.341Z,76.12
2019-05-22T10:42:58.446Z,76.99
2019-05-22T10:45:28.749Z,77.15
2019-05-22T10:47:59.002Z,77.02
2019-05-22T10:50:29.925Z,76.89
2019-05-22T10:53:00.246Z,76.73
2019-05-22T10:55:31.944Z,77.37
2019-05-22T10:58:02.346Z,77.39
2019-05-22T11:00:33.137Z,77.15
2019-05-22T11:03:04.341Z,77.32
2019-05-22T11:05:35.212Z,76.75
2019-05-22T11:08:06.601Z,75.96
2019-05-22T11:10:36.979Z,75.70
2019-05-22T11:13:07.553Z,75.89
2019-05-22T11:15:37.789Z,75.52
2019-05-22T11:18:08.189Z,76.19
2019-05-22T11:20:38.379Z,75.95
2019-05-22T11:23:09.385Z,75.82
2019-05-22T11:25:39.710Z,74.54
2019-05-22T11:28:09.771Z,73.84
2019-05-22T11:30:40.512Z,72.28
2019-05-22T11:33:11.263Z,70.98
2019-05-22T11:35:41.664Z,70.58
2019-05-22T11:38:11.675Z,70.42
2019-05-22T11:40:41.996Z,70.00
2019-05-22T11:43:13.088Z,70.62
2019-05-22T11:45:45.395Z,70.99
2019-05-22T11:48:16.286Z,70.42
2019-05-22T11:50:46.766Z,69.39
2019-05-22T11:53:16.941Z,68.72
2019-05-22T11:55:47.584Z,68.53
2019-05-22T11:58:18.387Z,67.90
2019-05-22T12:00:48.538Z,68.48
2019-05-22T12:03:19.167Z,68.92
2019-05-22T12:05:49.363Z,67.46
2019-05-22T12:08:19.716Z,66.25
2019-05-22T12:10:51.349Z,66.58
2019-05-22T12:13:21.713Z,66.17
2019-05-22T12:15:53.100Z,66.89
2019-05-22T12:18:23.928Z,67.20
2019-05-22T12:20:54.494Z,67.64
2019-05-22T12:23:25.016Z,67.69
2019-05-22T12:25:56.033Z,67.31
2019-05-22T12:28:26.574Z,67.41
2019-05-22T12:30:57.683Z,67.51
2019-05-22T12:33:28.543Z,67.83
2019-05-22T12:35:59.517Z,67.65
2019-05-22T12:38:32.849Z,67.36
2019-05-22T12:41:04.446Z,66.71
2019-05-22T12:43:35.194Z,66.39
2019-05-22T12:46:05.255Z,66.09
2019-05-22T12:48:36.638Z,67.29
2019-05-22T12:51:08.042Z,66.87
2019-05-22T12:53:38.621Z,66.09
2019-05-22T12:56:09.105Z,65.99
2019-05-22T12:58:40.304Z,65.35
2019-05-22T13:01:10.909Z,65.20
2019-05-22T13:03:42.143Z,65.81
2019-05-22T13:06:12.980Z,65.37
2019-05-22T13:08:43.356Z,66.38
2019-05-22T13:11:14.396Z,65.93
2019-05-22T13:13:46.488Z,64.79
2019-05-22T13:16:18.088Z,63.87
2019-05-22T13:18:48.506Z,64.68
2019-05-22T13:21:22.544Z,63.70
2019-05-22T13:23:53.443Z,63.44
2019-05-22T13:26:25.369Z,64.01
2019-05-22T13:28:57.693Z,63.67
2019-05-22T13:31:28.230Z,62.02
2019-05-22T13:34:00.563Z,61.59
2019-05-22T13:36:30.824Z,61.36
2019-05-22T13:39:01.369Z,61.19
2019-05-22T13:41:33.673Z,62.51
2019-05-22T13:44:06.006Z,61.07
2019-05-22T13:46:36.939Z,59.93
2019-05-22T13:49:10.903Z,58.78
2019-05-22T13:51:41.165Z,57.49
2019-05-22T13:54:16.463Z,57.99
2019-05-22T13:56:47.613Z,58.96
2019-05-22T13:59:18.337Z,59.66
2019-05-22T14:01:48.764Z,60.16
2019-05-22T14:04:18.864Z,61.21
2019-05-22T14:06:49.488Z,61.50
2019-05-22T14:09:21.594Z,61.66
2019-05-22T14:11:54.087Z,62.21
2019-05-22T14:14:27.539Z,62.84
2019-05-22T14:16:57.548Z,63.31
2019-05-22T14:19:27.825Z,62.46
2019-05-22T14:21:58.187Z,62.08
2019-05-22T14:24:28.270Z,62.66
2019-05-22T14:26:58.401Z,62.81
2019-05-22T14:29:28.756Z,62.01
2019-05-22T14:31:58.926Z,61.98
2019-05-22T14:34:29.951Z,61.55
2019-05-22T14:37:00.093Z,59.38
2019-05-22T14:39:32.527Z,59.82
2019-05-22T14:42:04.731Z,59.99
2019-05-22T14:44:38.053Z,59.63
2019-05-22T14:47:14.616Z,58.26
2019-05-22T14:49:43.969Z,58.95
2019-05-22T14:52:18.140Z,58.42
2019-05-22T14:54:49.506Z,59.44
2019-05-22T14:57:22.963Z,59.15
2019-05-22T14:59:54.167Z,60.41
2019-05-22T15:02:24.493Z,60.30
2019-05-22T15:05:03.136Z,59.71
2019-05-22T15:07:33.598Z,60.00
2019-05-22T15:10:05.731Z,59.06
2019-05-22T15:12:36.222Z,57.88
2019-05-22T15:15:08.520Z,57.57
2019-05-22T15:17:38.712Z,57.13
2019-05-22T15:20:12.766Z,57.15
2019-05-22T15:22:42.931Z,58.08
2019-05-22T15:25:17.665Z,56.57
2019-05-22T15:27:48.331Z,56.13
2019-05-22T15:30:19.841Z,57.17
2019-05-22T15:32:49.879Z,55.87
2019-05-22T15:35:20.317Z,56.70
2019-05-22T15:37:53.783Z,56.54
2019-05-22T15:40:25.213Z,57.01
2019-05-22T15:42:55.297Z,55.76
2019-05-22T15:45:27.472Z,56.08
2019-05-22T15:48:00.723Z,55.83
2019-05-22T15:50:33.943Z,56.03
2019-05-22T15:53:10.998Z,55.25
2019-05-22T15:55:42.639Z,54.92
2019-05-22T15:58:15.273Z,56.18
2019-05-22T16:00:47.600Z,56.92
2019-05-22T16:03:22.036Z,56.33
2019-05-22T16:05:54.090Z,55.80
2019-05-22T16:08:24.736Z,56.06
2019-05-22T16:10:59.745Z,55.30
2019-05-22T16:13:32.163Z,56.81
2019-05-22T16:16:05.726Z,56.91
2019-05-22T16:18:38.943Z,57.76
2019-05-22T16:21:11.453Z,56.74
2019-05-22T16:23:43.142Z,56.89
2019-05-22T16:26:17.670Z,56.90
2019-05-22T16:28:49.182Z,57.81
2019-05-22T16:31:20.400Z,57.00
2019-05-22T16:33:53.542Z,55.93
2019-05-22T16:36:24.262Z,54.67
2019-05-22T16:38:54.703Z,54.32
2019-05-22T16:41:25.830Z,55.14
2019-05-22T16:43:56.871Z,55.39
2019-05-22T16:46:27.877Z,55.65
2019-05-22T16:48:58.915Z,55.43
2019-05-22T16:51:30.500Z,53.06
2019-05-22T16:54:10.293Z,53.60
2019-05-22T16:56:41.516Z,54.02
2019-05-22T16:59:14.440Z,53.12
2019-05-22T17:01:58.637Z,53.72
2019-05-22T17:04:18.571Z,53.06
2019-05-22T17:06:49.573Z,54.35
2019-05-22T17:09:21.404Z,54.86
2019-05-22T17:11:52.547Z,55.11
2019-05-22T17:14:23.725Z,55.10
2019-05-22T17:16:56.427Z,56.31
2019-05-22T17:19:28.037Z,54.94
2019-05-22T17:21:59.634Z,53.57
2019-05-22T17:24:33.997Z,54.18
2019-05-22T17:27:04.574Z,55.95
2019-05-22T17:29:35.283Z,55.86
2019-05-22T17:32:06.316Z,56.69
2019-05-22T17:34:37.717Z,57.16
2019-05-22T17:37:11.940Z,56.85
2019-05-22T17:39:44.368Z,57.52
2019-05-22T17:42:17.417Z,56.79
2019-05-22T17:44:49.675Z,57.91
2019-05-22T17:47:21.818Z,57.61
2019-05-22T17:49:53.310Z,57.62
2019-05-22T17:52:24.428Z,57.89
2019-05-22T17:54:55.030Z,58.52
2019-05-22T17:57:25.206Z,58.27
2019-05-22T17:59:55.795Z,59.49
2019-05-22T18:02:27.465Z,59.89
2019-05-22T18:04:57.656Z,59.91
2019-05-22T18:07:28.525Z,59.68
2019-05-22T18:10:00.369Z,59.71
2019-05-22T18:12:30.847Z,60.30
2019-05-22T18:15:02.378Z,60.10
2019-05-22T18:17:33.679Z,59.93
2019-05-22T18:20:07.954Z,60.70
2019-05-22T18:22:38.561Z,61.31
2019-05-22T18:25:09.370Z,62.20
2019-05-22T18:27:42.399Z,62.21
2019-05-22T18:30:14.372Z,61.79
2019-05-22T18:32:44.359Z,62.98
2019-05-22T18:35:15.137Z,63.23
2019-05-22T18:37:45.220Z,62.20
2019-05-22T18:40:16.419Z,63.02
2019-05-22T18:42:46.436Z,63.07
2019-05-22T18:45:17.270Z,64.47
2019-05-22T18:47:47.591Z,65.05
2019-05-22T18:50:18.551Z,65.66
2019-05-22T18:52:50.209Z,65.27
2019-05-22T18:55:20.747Z,66.18
2019-05-22T18:57:51.002Z,67.21
2019-05-22T19:00:28.146Z,67.23
2019-05-22T19:02:58.540Z,68.00
2019-05-22T19:05:31.633Z,68.39
2019-05-22T19:08:01.988Z,67.76
2019-05-22T19:10:32.241Z,67.79
2019-05-22T19:13:02.772Z,68.60
2019-05-22T19:15:33.712Z,68.45
2019-05-22T19:18:04.453Z,69.53
2019-05-22T19:20:37.250Z,69.74
2019-05-22T19:23:09.037Z,69.68
2019-05-22T19:25:39.202Z,70.54
2019-05-22T19:28:11.082Z,70.52
2019-05-22T19:30:43.813Z,70.91
2019-05-22T19:33:16.697Z,70.89
2019-05-22T19:35:49.569Z,71.47
2019-05-22T19:38:22.852Z,71.67
2019-05-22T19:40:51.934Z,72.06
2019-05-22T19:43:22.315Z,72.37
2019-05-22T19:45:52.730Z,72.76
2019-05-22T19:48:23.166Z,72.83
2019-05-22T19:50:54.905Z,72.63
2019-05-22T19:53:25.246Z,72.93
2019-05-22T19:55:56.063Z,73.52
2019-05-22T19:58:26.893Z,73.80
2019-05-22T20:00:57.053Z,74.36
2019-05-22T20:03:33.212Z,74.68
2019-05-22T20:06:00.468Z,74.97
2019-05-22T20:08:32.101Z,74.93
2019-05-22T20:11:05.936Z,74.85
2019-05-22T20:13:36.563Z,75.55
2019-05-22T20:16:06.587Z,75.29
2019-05-22T20:18:36.852Z,75.30
2019-05-22T20:21:06.913Z,75.47
2019-05-22T20:23:37.347Z,76.05
2019-05-22T20:26:07.830Z,76.65
2019-05-22T20:28:39.479Z,76.65
2019-05-22T20:31:09.492Z,76.88
2019-05-22T20:33:39.826Z,77.11
2019-05-22T20:36:10.827Z,77.02
2019-05-22T20:38:41.111Z,76.89
2019-05-22T20:41:12.736Z,77.04
2019-05-22T20:43:43.380Z,76.76
2019-05-22T20:46:15.804Z,77.13
2019-05-22T20:48:45.813Z,77.06
2019-05-22T20:51:18.383Z,76.83
2019-05-22T20:53:54.302Z,76.81
2019-05-22T20:56:21.708Z,76.92
2019-05-22T20:58:52.546Z,76.99
2019-05-22T21:01:22.829Z,76.99
2019-05-22T21:03:57.482Z,77.10
2019-05-22T21:06:29.006Z,76.98
2019-05-22T21:09:00.399Z,77.21
2019-05-22T21:11:32.535Z,77.29
2019-05-22T21:14:03.327Z,77.72
2019-05-22T21:16:34.266Z,77.86
2019-05-22T21:19:04.712Z,77.77
2019-05-22T21:21:34.974Z,77.99
2019-05-22T21:24:11.371Z,78.12
2019-05-22T21:26:41.411Z,78.18
2019-05-22T21:29:12.498Z,78.59
2019-05-22T21:31:47.508Z,79.12
2019-05-22T21:34:16.941Z,79.57
2019-05-22T21:36:47.554Z,79.58
2019-05-22T21:39:20.057Z,79.56
2019-05-22T21:41:50.399Z,79.84
2019-05-22T21:44:20.487Z,79.56
2019-05-22T21:46:53.618Z,79.15
2019-05-22T21:49:25.744Z,78.87
2019-05-22T21:51:56.117Z,79.13
2019-05-22T21:54:27.054Z,79.06
2019-05-22T21:56:57.244Z,79.03
2019-05-22T21:59:31.409Z,79.15
2019-05-22T22:02:12.494Z,79.11
2019-05-22T22:04:43.348Z,78.99
2019-05-22T22:07:14.156Z,78.86
2019-05-22T22:09:44.970Z,78.65
2019-05-22T22:12:18.335Z,78.45
2019-05-22T22:14:49.753Z,78.57
2019-05-22T22:17:27.308Z,78.90
2019-05-22T22:19:57.759Z,78.83
2019-05-22T22:22:29.590Z,78.68
2019-05-22T22:24:59.748Z,78.91
2019-05-22T22:27:32.191Z,78.98
2019-05-22T22:30:03.924Z,79.34
2019-05-22T22:32:39.487Z,79.58
2019-05-22T22:35:12.477Z,79.69
2019-05-22T22:37:43.945Z,79.81
2019-05-22T22:40:17.900Z,79.83
2019-05-22T22:42:51.251Z,79.62
2019-05-22T22:45:23.940Z,79.62
2019-05-22T22:47:54.007Z,79.79
2019-05-22T22:50:25.472Z,79.64
2019-05-22T22:52:55.807Z,79.98
2019-05-22T22:55:28.175Z,80.30
2019-05-22T22:58:16.153Z,80.21
2019-05-22T23:00:38.790Z,80.27
2019-05-22T23:03:14.691Z,80.10
2019-05-22T23:05:49.244Z,80.10
2019-05-22T23:08:25.350Z,80.04
2019-05-22T23:10:56.377Z,80.13
2019-05-22T23:13:29.643Z,80.03
2019-05-22T23:16:03.323Z,79.96
2019-05-22T23:18:44.358Z,79.99
2019-05-22T23:21:14.844Z,80.31
2019-05-22T23:23:46.128Z,79.80
2019-05-22T23:26:20.531Z,80.54
2019-05-22T23:28:50.817Z,80.16
2019-05-22T23:31:24.977Z,80.32
2019-05-22T23:33:56.867Z,80.32
2019-05-22T23:36:30.044Z,80.37
2019-05-22T23:39:04.236Z,80.08
2019-05-22T23:41:37.100Z,80.21
2019-05-22T23:44:11.692Z,80.43
2019-05-22T23:46:43.041Z,79.99
2019-05-22T23:49:13.981Z,80.68
2019-05-22T23:51:48.166Z,80.56
2019-05-22T23:54:18.527Z,80.90
2019-05-22T23:56:49.909Z,80.90
2019-05-22T23:59:20.320Z,80.76
